LFML/MRS METAR and TAF weather

Enter ICAO airport designator
Station Type Date Time Source
LFML METAR 2021/08/01 17:30 UTC NOAA

LFML 011730Z AUTO 32017KT CAVOK 27/11 Q1011 NOSIG


Station Type Date Time Source
LFML Decoded METAR 2021/08/01 17:30 UTC NOAA

Marseille / Marignane, France (LFML) 43-27N 005-14E 36M
Aug 01, 2021 - 01:30 PM EDT / 2021.08.01 1730 UTC
Wind: from the NW (320 degrees) at 20 MPH (17 KT):0
Visibility: greater than 7 mile(s):0
Temperature: 80 F (27 C)
Dew Point: 51 F (11 C)
Relative Humidity: 36%
Pressure (altimeter): 29.85 in. Hg (1011 hPa)
ob: LFML 011730Z AUTO 32017KT CAVOK 27/11 Q1011 NOSIG
cycle: 17

Station Type Date Time Source
LFML TAF 2021/08/01 15:46 UTC NOAA

TAF LFML 011400Z 0115/0221 32012KT CAVOK TX28/0115Z TN18/0205Z PROB40
TEMPO 0115/0118 26020G30KT
BECMG 0212/0214 26012KT
TEMPO 0214/0217 25015G25KT
BECMG 0218/0221 VRB04KT

Example: see airport list